createdAt,value
2018-05-27T00:00:30.297Z,15.70
2018-05-27T00:02:58.739Z,15.80
2018-05-27T00:05:27.493Z,15.80
2018-05-27T00:07:55.584Z,15.80
2018-05-27T00:10:24.824Z,15.60
2018-05-27T00:12:53.349Z,15.60
2018-05-27T00:15:22.052Z,15.40
2018-05-27T00:17:51.288Z,15.40
2018-05-27T00:20:19.809Z,15.40
2018-05-27T00:22:48.528Z,15.50
2018-05-27T00:25:17.961Z,15.40
2018-05-27T00:27:46.528Z,15.40
2018-05-27T00:30:14.964Z,15.40
2018-05-27T00:32:43.657Z,15.40
2018-05-27T00:35:12.100Z,15.30
2018-05-27T00:37:40.230Z,15.30
2018-05-27T00:40:08.743Z,15.30
2018-05-27T00:42:37.388Z,15.20
2018-05-27T00:45:05.856Z,15.20
2018-05-27T00:47:34.305Z,15.20
2018-05-27T00:50:02.449Z,15.20
2018-05-27T00:52:31.648Z,15.40
2018-05-27T00:55:00.881Z,15.50
2018-05-27T00:57:29.333Z,15.40
2018-05-27T00:59:58.548Z,15.30
2018-05-27T01:02:27.005Z,15.20
2018-05-27T01:04:55.633Z,15.30
2018-05-27T01:07:24.082Z,15.20
2018-05-27T01:09:52.732Z,15.20
2018-05-27T01:12:21.373Z,15.30
2018-05-27T01:14:50.003Z,15.50
2018-05-27T01:17:18.492Z,15.50
2018-05-27T01:19:46.939Z,15.60
2018-05-27T01:22:15.398Z,15.60
2018-05-27T01:24:43.831Z,15.50
2018-05-27T01:27:12.348Z,15.60
2018-05-27T01:29:41.596Z,15.50
2018-05-27T01:32:09.419Z,15.50
2018-05-27T01:34:38.925Z,15.40
2018-05-27T01:37:08.153Z,15.50
2018-05-27T01:39:36.881Z,15.40
2018-05-27T01:42:05.042Z,15.50
2018-05-27T01:44:33.487Z,15.40
2018-05-27T01:47:02.021Z,15.40
2018-05-27T01:49:30.634Z,15.50
2018-05-27T01:51:59.969Z,15.30
2018-05-27T01:54:28.447Z,15.30
2018-05-27T01:56:57.209Z,15.20
2018-05-27T01:59:26.462Z,15.10
2018-05-27T02:01:54.961Z,15.10
2018-05-27T02:04:23.406Z,15.10
2018-05-27T02:06:51.867Z,15.10
2018-05-27T02:09:21.071Z,15.00
2018-05-27T02:11:49.538Z,15.00
2018-05-27T02:14:18.741Z,14.90
2018-05-27T02:16:48.184Z,14.90
2018-05-27T02:19:16.685Z,14.90
2018-05-27T02:21:45.210Z,14.80
2018-05-27T02:24:14.585Z,14.90
2018-05-27T02:26:43.051Z,14.90
2018-05-27T02:29:11.506Z,14.80
2018-05-27T02:31:40.149Z,14.70
2018-05-27T02:34:08.605Z,14.80
2018-05-27T02:36:37.220Z,14.80
2018-05-27T02:39:05.762Z,14.80
2018-05-27T02:41:34.367Z,14.70
2018-05-27T02:44:02.848Z,14.70
2018-05-27T02:46:31.297Z,14.70
2018-05-27T02:48:59.881Z,14.80
2018-05-27T02:51:28.484Z,14.80
2018-05-27T02:53:57.022Z,14.80
2018-05-27T02:56:26.446Z,14.90
2018-05-27T02:58:55.277Z,14.80
2018-05-27T03:01:23.733Z,14.80
2018-05-27T03:03:52.385Z,15.00
2018-05-27T03:06:21.614Z,15.00
2018-05-27T03:08:50.162Z,15.10
2018-05-27T03:11:19.728Z,15.10
2018-05-27T03:13:48.291Z,15.10
2018-05-27T03:16:16.856Z,15.00
2018-05-27T03:18:45.522Z,14.90
2018-05-27T03:21:14.723Z,14.90
2018-05-27T03:23:44.033Z,15.00
2018-05-27T03:26:13.169Z,15.00
2018-05-27T03:28:41.715Z,14.90
2018-05-27T03:31:11.240Z,14.70
2018-05-27T03:33:39.684Z,14.70
2018-05-27T03:36:08.368Z,14.70
2018-05-27T03:38:37.129Z,14.80
2018-05-27T03:41:05.576Z,14.80
2018-05-27T03:43:34.044Z,14.80
2018-05-27T03:46:03.276Z,15.00
2018-05-27T03:48:31.731Z,14.90
2018-05-27T03:51:01.146Z,15.00
2018-05-27T03:53:30.681Z,15.00
2018-05-27T03:55:59.317Z,14.90
2018-05-27T03:58:28.040Z,15.00
2018-05-27T04:00:56.464Z,14.90
2018-05-27T04:03:25.245Z,15.00
2018-05-27T04:06:18.992Z,14.90
2018-05-27T04:08:47.443Z,15.00
2018-05-27T04:11:15.900Z,15.00
2018-05-27T04:13:44.365Z,15.10
2018-05-27T04:16:14.772Z,15.20
2018-05-27T04:18:43.300Z,15.20
2018-05-27T04:21:12.532Z,15.10
2018-05-27T04:23:41.094Z,15.20
2018-05-27T04:26:10.355Z,15.10
2018-05-27T04:28:39.012Z,15.10
2018-05-27T04:31:08.544Z,15.20
2018-05-27T04:33:37.040Z,15.20
2018-05-27T04:36:05.673Z,15.20
2018-05-27T04:38:34.120Z,15.20
2018-05-27T04:41:02.641Z,15.40
2018-05-27T04:43:31.109Z,15.40
2018-05-27T04:46:00.335Z,15.50
2018-05-27T04:48:28.984Z,15.40
2018-05-27T04:50:57.465Z,15.60
2018-05-27T04:53:25.957Z,15.60
2018-05-27T04:55:55.221Z,15.70
2018-05-27T04:58:23.765Z,15.70
2018-05-27T05:00:52.220Z,15.80
2018-05-27T05:03:21.617Z,15.90
2018-05-27T05:05:50.867Z,16.10
2018-05-27T05:08:19.421Z,16.20
2018-05-27T05:10:48.842Z,16.30
2018-05-27T05:13:17.283Z,16.30
2018-05-27T05:15:45.729Z,16.30
2018-05-27T05:18:14.202Z,16.40
2018-05-27T05:20:42.664Z,16.40
2018-05-27T05:23:11.150Z,16.40
2018-05-27T05:25:39.584Z,16.40
2018-05-27T05:28:09.561Z,16.40
2018-05-27T05:30:38.245Z,16.40
2018-05-27T05:33:06.668Z,16.50
2018-05-27T05:35:35.545Z,16.60
2018-05-27T05:38:03.987Z,16.50
2018-05-27T05:40:32.436Z,16.70
2018-05-27T05:43:01.094Z,16.70
2018-05-27T05:45:29.626Z,16.70
2018-05-27T05:47:58.856Z,16.80
2018-05-27T05:50:26.976Z,16.70
2018-05-27T05:52:55.483Z,16.80
2018-05-27T05:55:24.780Z,16.90
2018-05-27T05:57:54.006Z,16.80
2018-05-27T06:00:22.666Z,16.90
2018-05-27T06:02:52.017Z,17.00
2018-05-27T06:05:20.676Z,17.00
2018-05-27T06:07:49.134Z,17.10
2018-05-27T06:10:18.368Z,17.30
2018-05-27T06:12:46.801Z,17.20
2018-05-27T06:15:15.357Z,17.40
2018-05-27T06:17:43.795Z,17.50
2018-05-27T06:20:12.283Z,17.50
2018-05-27T06:22:40.746Z,17.60
2018-05-27T06:25:10.020Z,17.80
2018-05-27T06:27:38.478Z,17.70
2018-05-27T06:30:06.915Z,17.80
2018-05-27T06:32:36.140Z,18.10
2018-05-27T06:35:04.808Z,18.00
2018-05-27T06:37:35.714Z,18.30
2018-05-27T06:40:06.171Z,18.40
2018-05-27T06:42:35.780Z,18.60
2018-05-27T06:45:04.638Z,18.70
2018-05-27T06:47:33.148Z,18.70
2018-05-27T06:50:02.428Z,18.80
2018-05-27T06:52:30.945Z,18.80
2018-05-27T06:55:00.162Z,19.10
2018-05-27T06:57:28.737Z,19.00
2018-05-27T06:59:57.173Z,19.10
2018-05-27T07:02:25.745Z,19.20
2018-05-27T07:04:54.220Z,19.40
2018-05-27T07:07:22.517Z,19.50
2018-05-27T07:09:51.033Z,19.60
2018-05-27T07:12:20.449Z,19.90
2018-05-27T07:14:48.888Z,19.80
2018-05-27T07:17:17.351Z,19.90
2018-05-27T07:19:45.852Z,19.80
2018-05-27T07:22:14.346Z,19.90
2018-05-27T07:24:42.787Z,20.10
2018-05-27T07:27:11.227Z,20.20
2018-05-27T07:29:40.652Z,20.40
2018-05-27T07:32:09.120Z,20.50
2018-05-27T07:34:37.769Z,20.50
2018-05-27T07:37:06.398Z,20.60
2018-05-27T07:39:34.839Z,20.80
2018-05-27T07:42:03.585Z,20.80
2018-05-27T07:44:32.205Z,21.20
2018-05-27T07:47:00.963Z,21.20
2018-05-27T07:49:29.376Z,21.50
2018-05-27T07:51:57.812Z,21.60
2018-05-27T07:54:26.442Z,21.50
2018-05-27T07:56:54.880Z,21.50
2018-05-27T07:59:23.348Z,21.80
2018-05-27T08:01:52.554Z,22.10
2018-05-27T08:04:22.025Z,22.00
2018-05-27T08:06:50.620Z,22.20
2018-05-27T08:09:19.078Z,22.40
2018-05-27T08:11:47.533Z,22.50
2018-05-27T08:14:16.008Z,22.50
2018-05-27T08:16:44.127Z,22.70
2018-05-27T08:19:12.781Z,22.70
2018-05-27T08:21:41.225Z,23.00
2018-05-27T08:24:10.457Z,23.30
2018-05-27T08:26:38.917Z,23.20
2018-05-27T08:29:07.372Z,23.50
2018-05-27T08:31:36.045Z,23.50
2018-05-27T08:34:04.571Z,23.50
2018-05-27T08:36:33.030Z,21.60
2018-05-27T08:39:02.281Z,23.70
2018-05-27T08:41:31.130Z,23.70
2018-05-27T08:44:00.481Z,23.50
2018-05-27T08:46:29.101Z,23.50
2018-05-27T08:48:57.619Z,23.50
2018-05-27T08:51:26.221Z,23.60
2018-05-27T08:53:55.175Z,23.90
2018-05-27T08:56:24.648Z,23.70
2018-05-27T08:58:53.110Z,23.60
2018-05-27T09:01:21.640Z,23.90
2018-05-27T09:03:50.218Z,23.70
2018-05-27T09:06:18.649Z,23.70
2018-05-27T09:08:47.315Z,23.90
2018-05-27T09:11:15.941Z,24.00
2018-05-27T09:13:44.383Z,24.30
2018-05-27T09:16:12.885Z,24.40
2018-05-27T09:18:41.492Z,24.50
2018-05-27T09:21:09.973Z,24.60
2018-05-27T09:23:38.418Z,24.60
2018-05-27T09:26:07.320Z,24.70
2018-05-27T09:28:35.831Z,24.60
2018-05-27T09:31:04.264Z,24.70
2018-05-27T09:33:33.466Z,25.00
2018-05-27T09:36:02.665Z,25.00
2018-05-27T09:38:31.527Z,24.90
2018-05-27T09:41:00.156Z,24.90
2018-05-27T09:43:28.632Z,24.90
2018-05-27T09:45:57.089Z,25.00
2018-05-27T09:48:26.318Z,25.20
2018-05-27T09:50:55.613Z,25.20
2018-05-27T09:53:24.097Z,25.10
2018-05-27T09:55:52.754Z,25.20
2018-05-27T09:58:21.239Z,25.10
2018-05-27T10:00:49.759Z,25.10
2018-05-27T10:03:18.195Z,25.10
2018-05-27T10:05:46.670Z,25.00
2018-05-27T10:08:15.192Z,25.10
2018-05-27T10:10:43.774Z,25.30
2018-05-27T10:13:13.021Z,25.10
2018-05-27T10:15:41.699Z,25.10
2018-05-27T10:18:10.149Z,25.30
2018-05-27T10:20:38.681Z,25.30
2018-05-27T10:23:07.140Z,25.40
2018-05-27T10:25:35.890Z,25.50
2018-05-27T10:28:05.331Z,25.10
2018-05-27T10:30:34.357Z,25.00
2018-05-27T10:33:02.870Z,25.60
2018-05-27T10:35:32.070Z,25.40
2018-05-27T10:38:00.949Z,25.50
2018-05-27T10:40:29.410Z,25.40
2018-05-27T10:42:57.881Z,25.50
2018-05-27T10:45:26.342Z,25.40
2018-05-27T10:47:54.854Z,25.80
2018-05-27T10:50:23.305Z,25.90
2018-05-27T10:52:51.783Z,25.70
2018-05-27T10:55:21.392Z,26.20
2018-05-27T10:57:50.410Z,26.10
2018-05-27T11:00:20.337Z,26.50
2018-05-27T11:02:50.020Z,26.80
2018-05-27T11:05:19.160Z,27.20
2018-05-27T11:07:48.943Z,27.40
2018-05-27T11:10:18.554Z,27.50
2018-05-27T11:12:48.455Z,27.20
2018-05-27T11:15:18.227Z,27.20
2018-05-27T11:17:47.312Z,27.10
2018-05-27T11:20:16.576Z,27.20
2018-05-27T11:22:45.026Z,27.10
2018-05-27T11:25:14.252Z,27.30
2018-05-27T11:27:42.714Z,27.30
2018-05-27T11:30:12.005Z,27.50
2018-05-27T11:32:41.513Z,27.50
2018-05-27T11:35:10.168Z,27.30
2018-05-27T11:37:38.640Z,27.40
2018-05-27T11:40:07.082Z,26.90
2018-05-27T11:42:35.556Z,26.70
2018-05-27T11:45:04.141Z,26.90
2018-05-27T11:47:32.646Z,26.60
2018-05-27T11:50:01.467Z,27.00
2018-05-27T11:52:29.928Z,26.80
2018-05-27T11:54:58.436Z,26.80
2018-05-27T11:57:26.928Z,26.50
2018-05-27T11:59:55.592Z,26.40
2018-05-27T12:02:24.249Z,26.70
2018-05-27T12:04:52.730Z,26.50
2018-05-27T12:07:21.705Z,24.50
2018-05-27T12:09:50.159Z,26.20
2018-05-27T12:12:18.607Z,26.50
2018-05-27T12:14:47.050Z,26.90
2018-05-27T12:17:15.485Z,27.10
2018-05-27T12:19:44.164Z,27.00
2018-05-27T12:22:13.073Z,27.30
2018-05-27T12:24:41.603Z,27.30
2018-05-27T12:27:10.282Z,27.20
2018-05-27T12:29:38.776Z,27.40
2018-05-27T12:32:07.503Z,27.40
2018-05-27T12:34:35.948Z,27.60
2018-05-27T12:37:04.425Z,27.80
2018-05-27T12:39:33.943Z,27.60
2018-05-27T12:42:02.589Z,27.60
2018-05-27T12:44:31.030Z,27.20
2018-05-27T12:46:59.652Z,26.90
2018-05-27T12:49:28.123Z,26.40
2018-05-27T12:51:57.364Z,26.40
2018-05-27T12:54:25.813Z,26.30
2018-05-27T12:56:54.274Z,26.20
2018-05-27T12:59:22.955Z,26.00
2018-05-27T13:01:51.402Z,25.90
2018-05-27T13:04:19.972Z,25.50
2018-05-27T13:06:49.197Z,25.60
2018-05-27T13:09:18.061Z,25.40
2018-05-27T13:11:47.294Z,25.40
2018-05-27T13:14:15.735Z,25.40
2018-05-27T13:16:45.351Z,25.30
2018-05-27T13:19:14.298Z,25.10
2018-05-27T13:21:42.728Z,25.10
2018-05-27T13:24:11.189Z,25.10
2018-05-27T13:26:39.629Z,24.90
2018-05-27T13:29:08.484Z,24.70
2018-05-27T13:31:37.888Z,24.70
2018-05-27T13:34:07.121Z,24.70
2018-05-27T13:36:35.973Z,24.70
2018-05-27T13:39:04.536Z,24.70
2018-05-27T13:41:33.571Z,24.70
2018-05-27T13:44:02.018Z,24.70
2018-05-27T13:46:31.346Z,24.50
2018-05-27T13:49:00.752Z,24.40
2018-05-27T13:51:29.799Z,24.30
2018-05-27T13:53:59.499Z,24.30
2018-05-27T13:56:29.085Z,24.30
2018-05-27T13:58:58.205Z,24.20
2018-05-27T14:01:27.777Z,24.00
2018-05-27T14:03:57.576Z,23.80
2018-05-27T14:06:26.618Z,23.80
2018-05-27T14:08:55.675Z,23.70
2018-05-27T14:11:24.846Z,23.70
2018-05-27T14:13:53.894Z,23.70
2018-05-27T14:16:23.729Z,23.70
2018-05-27T14:18:53.663Z,23.70
2018-05-27T14:21:23.267Z,23.80
2018-05-27T14:23:52.685Z,23.90
2018-05-27T14:26:22.620Z,23.90
2018-05-27T14:28:51.881Z,23.90
2018-05-27T14:31:20.905Z,23.90
2018-05-27T14:33:50.136Z,24.00
2018-05-27T14:36:19.049Z,23.90
2018-05-27T14:38:47.535Z,23.90
2018-05-27T14:41:16.136Z,24.10
2018-05-27T14:43:44.980Z,24.20
2018-05-27T14:46:13.424Z,24.30
2018-05-27T14:48:42.778Z,24.30
2018-05-27T14:51:11.212Z,24.30
2018-05-27T14:53:40.068Z,24.30
2018-05-27T14:56:08.905Z,24.20
2018-05-27T14:58:37.410Z,24.20
2018-05-27T15:01:05.837Z,24.20
2018-05-27T15:03:34.268Z,24.10
2018-05-27T15:06:03.165Z,24.20
2018-05-27T15:08:32.016Z,24.10
2018-05-27T15:11:01.037Z,24.30
2018-05-27T15:13:29.964Z,24.40
2018-05-27T15:15:58.802Z,24.40
2018-05-27T15:18:28.124Z,24.50
2018-05-27T15:20:56.713Z,24.40
2018-05-27T15:23:25.185Z,24.70
2018-05-27T15:25:54.596Z,24.90
2018-05-27T15:28:24.088Z,25.20
2018-05-27T15:30:52.929Z,25.30
2018-05-27T15:33:21.435Z,25.40
2018-05-27T15:35:49.972Z,25.50
2018-05-27T15:38:18.438Z,25.60
2018-05-27T15:40:47.746Z,25.90
2018-05-27T15:43:16.990Z,26.50
2018-05-27T15:45:45.887Z,26.70
2018-05-27T15:48:13.987Z,26.20
2018-05-27T15:50:42.648Z,26.70
2018-05-27T15:53:11.153Z,26.60
2018-05-27T15:55:39.614Z,26.90
2018-05-27T15:58:08.456Z,27.20
2018-05-27T16:00:36.912Z,27.50
2018-05-27T16:03:05.356Z,27.80
2018-05-27T16:05:33.881Z,27.70
2018-05-27T16:08:03.096Z,28.00
2018-05-27T16:10:32.018Z,28.10
2018-05-27T16:13:00.477Z,28.20
2018-05-27T16:15:29.904Z,28.10
2018-05-27T16:17:59.695Z,27.30
2018-05-27T16:20:28.656Z,26.50
2018-05-27T16:22:57.148Z,26.00
2018-05-27T16:25:25.757Z,26.00
2018-05-27T16:27:55.061Z,26.50
2018-05-27T16:30:24.265Z,26.30
2018-05-27T16:32:52.952Z,26.30
2018-05-27T16:35:21.636Z,26.00
2018-05-27T16:37:50.865Z,25.30
2018-05-27T16:40:19.632Z,25.20
2018-05-27T16:42:48.511Z,25.20
2018-05-27T16:45:17.729Z,25.00
2018-05-27T16:47:46.172Z,25.10
2018-05-27T16:50:14.724Z,24.90
2018-05-27T16:52:43.256Z,24.90
2018-05-27T16:55:11.856Z,25.00
2018-05-27T16:57:40.377Z,25.10
2018-05-27T17:00:08.937Z,25.00
2018-05-27T17:02:38.424Z,24.90
2018-05-27T17:05:07.316Z,24.90
2018-05-27T17:07:36.232Z,24.70
2018-05-27T17:10:04.660Z,24.60
2018-05-27T17:12:33.114Z,24.50
2018-05-27T17:15:02.279Z,24.50
2018-05-27T17:17:31.349Z,24.50
2018-05-27T17:20:00.192Z,24.50
2018-05-27T17:22:29.025Z,24.40
2018-05-27T17:24:58.257Z,24.40
2018-05-27T17:27:26.704Z,24.30
2018-05-27T17:29:55.156Z,24.20
2018-05-27T17:32:23.596Z,24.00
2018-05-27T17:34:51.743Z,23.90
2018-05-27T17:37:20.178Z,24.00
2018-05-27T17:39:48.721Z,24.00
2018-05-27T17:42:17.950Z,23.90
2018-05-27T17:44:46.405Z,23.70
2018-05-27T17:47:15.646Z,23.50
2018-05-27T17:49:44.189Z,23.60
2018-05-27T17:52:13.045Z,23.70
2018-05-27T17:54:41.520Z,23.80
2018-05-27T17:57:09.953Z,23.70
2018-05-27T17:59:38.465Z,23.40
2018-05-27T18:02:06.574Z,22.90
2018-05-27T18:04:35.100Z,22.90
2018-05-27T18:07:04.318Z,22.70
2018-05-27T18:09:33.241Z,22.90
2018-05-27T18:12:02.078Z,22.90
2018-05-27T18:14:31.282Z,22.80
2018-05-27T18:17:00.517Z,22.70
2018-05-27T18:19:29.109Z,22.60
2018-05-27T18:21:58.329Z,22.50
2018-05-27T18:24:26.992Z,22.40
2018-05-27T18:26:55.491Z,22.40
2018-05-27T18:29:24.312Z,22.40
2018-05-27T18:31:53.596Z,22.40
2018-05-27T18:34:22.310Z,22.40
2018-05-27T18:36:51.161Z,22.30
2018-05-27T18:39:19.644Z,22.20
2018-05-27T18:41:48.495Z,22.00
2018-05-27T18:44:17.464Z,21.70
2018-05-27T18:46:45.918Z,21.70
2018-05-27T18:49:15.348Z,21.70
2018-05-27T18:51:44.210Z,21.60
2018-05-27T18:54:12.732Z,21.60
2018-05-27T18:56:41.386Z,21.50
2018-05-27T18:59:10.060Z,21.40
2018-05-27T19:01:38.513Z,21.30
2018-05-27T19:04:07.364Z,21.20
2018-05-27T19:06:36.596Z,21.10
2018-05-27T19:09:05.134Z,21.00
2018-05-27T19:11:34.204Z,20.80
2018-05-27T19:14:02.850Z,20.70
2018-05-27T19:16:31.556Z,20.60
2018-05-27T19:19:00.006Z,20.50
2018-05-27T19:21:29.374Z,20.40
2018-05-27T19:23:59.391Z,20.30
2018-05-27T19:26:29.372Z,20.10
2018-05-27T19:28:57.829Z,20.10
2018-05-27T19:31:27.065Z,19.90
2018-05-27T19:33:55.495Z,19.90
2018-05-27T19:36:24.720Z,19.80
2018-05-27T19:38:53.580Z,19.80
2018-05-27T19:41:22.828Z,19.80
2018-05-27T19:43:51.308Z,19.80
2018-05-27T19:46:19.772Z,19.70
2018-05-27T19:48:48.272Z,19.60
2018-05-27T19:51:16.729Z,19.60
2018-05-27T19:53:45.268Z,19.50
2018-05-27T19:56:13.860Z,19.40
2018-05-27T19:58:42.301Z,19.30
2018-05-27T20:01:11.923Z,19.40
2018-05-27T20:03:40.401Z,19.60
2018-05-27T20:06:09.621Z,19.50
2018-05-27T20:08:38.517Z,19.60
2018-05-27T20:11:06.994Z,19.60
2018-05-27T20:13:35.517Z,19.70
2018-05-27T20:16:04.038Z,19.70
2018-05-27T20:18:32.664Z,19.60
2018-05-27T20:21:01.123Z,19.50
2018-05-27T20:23:29.684Z,19.60
2018-05-27T20:25:58.717Z,19.70
2018-05-27T20:28:27.203Z,19.40
2018-05-27T20:30:55.777Z,19.30
2018-05-27T20:33:24.418Z,19.60
2018-05-27T20:35:53.628Z,19.80
2018-05-27T20:38:22.289Z,19.90
2018-05-27T20:40:51.181Z,19.90
2018-05-27T20:43:20.040Z,19.90
2018-05-27T20:45:49.281Z,19.90
2018-05-27T20:48:18.753Z,19.70
2018-05-27T20:50:47.236Z,19.70
2018-05-27T20:53:16.220Z,19.80
2018-05-27T20:55:45.118Z,19.70
2018-05-27T20:58:13.980Z,19.80
2018-05-27T21:00:43.206Z,19.70
2018-05-27T21:03:12.089Z,19.80
2018-05-27T21:05:40.964Z,19.80
2018-05-27T21:08:10.200Z,19.80
2018-05-27T21:10:39.066Z,19.70
2018-05-27T21:13:08.897Z,19.60
2018-05-27T21:15:37.348Z,19.60
2018-05-27T21:18:06.664Z,19.70
2018-05-27T21:20:35.108Z,19.70
2018-05-27T21:23:03.582Z,19.60
2018-05-27T21:25:32.956Z,19.70
2018-05-27T21:28:01.412Z,19.70
2018-05-27T21:30:30.078Z,19.70
2018-05-27T21:32:58.516Z,19.70
2018-05-27T21:35:27.729Z,19.60
2018-05-27T21:37:56.371Z,19.50
2018-05-27T21:40:25.037Z,19.40
2018-05-27T21:42:53.597Z,19.20
2018-05-27T21:45:22.137Z,19.10
2018-05-27T21:47:50.753Z,19.10
2018-05-27T21:50:20.099Z,19.10
2018-05-27T21:52:48.536Z,19.20
2018-05-27T21:55:17.840Z,19.30
2018-05-27T21:57:47.070Z,19.20
2018-05-27T22:00:15.570Z,19.20
2018-05-27T22:02:44.009Z,19.10
2018-05-27T22:05:12.884Z,18.90
2018-05-27T22:07:41.547Z,18.90
2018-05-27T22:10:10.184Z,19.00
2018-05-27T22:12:38.646Z,18.90
2018-05-27T22:15:07.874Z,18.80
2018-05-27T22:17:36.532Z,18.60
2018-05-27T22:20:05.735Z,18.60
2018-05-27T22:22:35.169Z,18.50
2018-05-27T22:25:03.477Z,18.50
2018-05-27T22:27:31.944Z,18.40
2018-05-27T22:30:00.408Z,18.40
2018-05-27T22:32:28.886Z,18.20
2018-05-27T22:34:58.113Z,18.20
2018-05-27T22:37:26.556Z,18.30
2018-05-27T22:39:55.813Z,18.10
2018-05-27T22:42:24.244Z,17.90
2018-05-27T22:44:53.080Z,17.80
2018-05-27T22:47:21.646Z,17.60
2018-05-27T22:49:50.101Z,17.60
2018-05-27T22:52:18.569Z,17.60
2018-05-27T22:54:47.796Z,17.50
2018-05-27T22:57:16.701Z,17.30
2018-05-27T22:59:45.141Z,17.30
2018-05-27T23:02:14.356Z,17.20
2018-05-27T23:04:43.253Z,17.30
2018-05-27T23:07:11.706Z,17.40
2018-05-27T23:09:40.171Z,17.40
2018-05-27T23:12:08.635Z,17.30
2018-05-27T23:14:37.169Z,17.30
2018-05-27T23:17:05.626Z,17.30
2018-05-27T23:19:34.119Z,17.30
2018-05-27T23:22:02.983Z,17.30
2018-05-27T23:24:31.453Z,17.30
2018-05-27T23:26:59.918Z,17.30
2018-05-27T23:29:28.374Z,17.30
2018-05-27T23:31:57.597Z,17.30
2018-05-27T23:34:26.043Z,17.30
2018-05-27T23:36:55.284Z,17.20
2018-05-27T23:39:23.735Z,17.10
2018-05-27T23:41:52.957Z,17.00
2018-05-27T23:44:21.423Z,16.90
2018-05-27T23:46:49.869Z,16.80
2018-05-27T23:49:18.327Z,16.70
2018-05-27T23:51:46.806Z,16.70
2018-05-27T23:54:15.480Z,16.70
2018-05-27T23:56:43.944Z,16.60
2018-05-27T23:59:13.219Z,16.30
